Terminal Aerodrome Forecast
Issued by NWS Mt. Holly, NJ

Home | Current Version | Previous Version | Text Only | Print | Product List | Glossary On
Versions: 1 2 3 4 5 6 7 8 9 10 11 12 13 14 15 16 17 18 19 20 21 22 23 24 25 26 27
779
FTUS41 KPHI 231535 AAB
TAFILG
TAF AMD
KILG 231535Z 2316/2412 07008KT P6SM OVC007
     FM231800 12007KT P6SM VCSH OVC008
     FM232200 14005KT 6SM BR OVC008
     FM240200 22005KT 4SM BR OVC008
     FM240900 26005KT 6SM BR BKN012=

USA.gov is the U.S. government's official web portal to all federal, state and local government web resources and services.